createdAt,value
2019-01-20T00:00:36.306Z,31.27
2019-01-20T00:03:10.227Z,30.57
2019-01-20T00:06:00.599Z,30.17
2019-01-20T00:08:34.948Z,28.20
2019-01-20T00:11:26.555Z,29.87
2019-01-20T00:13:59.254Z,30.53
2019-01-20T00:16:32.418Z,30.37
2019-01-20T00:19:03.229Z,30.00
2019-01-20T00:21:35.182Z,29.30
2019-01-20T00:24:05.954Z,29.73
2019-01-20T00:26:39.390Z,32.43
2019-01-20T00:29:27.555Z,30.37
2019-01-20T00:32:03.238Z,31.60
2019-01-20T00:34:47.121Z,32.30
2019-01-20T00:37:23.493Z,31.97
2019-01-20T00:39:55.698Z,31.57
2019-01-20T00:42:29.289Z,32.63
2019-01-20T00:45:02.950Z,32.00
2019-01-20T00:47:45.635Z,31.13
2019-01-20T00:50:16.565Z,30.97
2019-01-20T00:52:49.455Z,30.40
2019-01-20T00:55:24.325Z,31.20
2019-01-20T00:58:11.727Z,29.10
2019-01-20T01:00:46.372Z,29.60
2019-01-20T01:03:19.343Z,30.30
2019-01-20T01:06:04.312Z,33.20
2019-01-20T01:08:35.122Z,28.40
2019-01-20T01:11:06.478Z,30.53
2019-01-20T01:13:47.744Z,29.70
2019-01-20T01:16:22.878Z,29.80
2019-01-20T01:18:56.258Z,30.83
2019-01-20T01:21:29.291Z,28.50
2019-01-20T01:24:01.627Z,31.20
2019-01-20T01:26:34.411Z,28.83
2019-01-20T01:29:08.625Z,28.30
2019-01-20T01:31:47.947Z,31.53
2019-01-20T01:34:21.046Z,27.93
2019-01-20T01:36:56.604Z,29.17
2019-01-20T01:39:29.828Z,27.90
2019-01-20T01:42:00.269Z,29.60
2019-01-20T01:44:31.509Z,27.77
2019-01-20T01:47:03.648Z,27.87
2019-01-20T01:49:42.258Z,27.47
2019-01-20T01:52:17.798Z,29.43
2019-01-20T01:54:50.562Z,27.87
2019-01-20T01:57:27.149Z,29.90
2019-01-20T01:59:57.988Z,29.80
2019-01-20T02:02:28.783Z,29.30
2019-01-20T02:05:00.220Z,28.83
2019-01-20T02:07:30.591Z,28.87
2019-01-20T02:10:01.864Z,29.43
2019-01-20T02:12:32.663Z,28.23
2019-01-20T02:15:18.778Z,29.63
2019-01-20T02:17:49.801Z,28.40
2019-01-20T02:20:25.003Z,28.67
2019-01-20T02:22:59.426Z,28.43
2019-01-20T02:25:51.551Z,28.27
2019-01-20T02:28:23.664Z,28.30
2019-01-20T02:31:03.591Z,27.97
2019-01-20T02:33:34.666Z,28.83
2019-01-20T02:36:09.012Z,30.40
2019-01-20T02:38:58.504Z,28.87
2019-01-20T02:41:30.617Z,29.50
2019-01-20T02:44:03.323Z,29.70
2019-01-20T02:46:52.302Z,27.47
2019-01-20T02:49:25.343Z,28.77
2019-01-20T02:51:59.426Z,28.07
2019-01-20T02:54:50.062Z,28.13
2019-01-20T02:57:24.440Z,28.73
2019-01-20T02:59:59.751Z,25.50
2019-01-20T03:02:30.769Z,27.10
2019-01-20T03:05:03.743Z,27.83
2019-01-20T03:07:47.676Z,25.97
2019-01-20T03:10:19.631Z,26.00
2019-01-20T03:12:54.086Z,26.50
2019-01-20T03:15:45.013Z,25.00
2019-01-20T03:18:35.801Z,27.30
2019-01-20T03:21:24.812Z,25.87
2019-01-20T03:24:13.875Z,27.07
2019-01-20T03:26:58.982Z,26.07
2019-01-20T03:29:29.834Z,26.10
2019-01-20T03:32:00.263Z,25.50
2019-01-20T03:34:31.126Z,26.80
2019-01-20T03:37:04.277Z,25.30
2019-01-20T03:39:41.771Z,25.53
2019-01-20T03:42:13.121Z,25.57
2019-01-20T03:44:46.766Z,25.43
2019-01-20T03:47:23.812Z,25.80
2019-01-20T03:49:55.176Z,26.10
2019-01-20T03:52:25.938Z,24.10
2019-01-20T03:54:57.158Z,23.23
2019-01-20T03:57:28.081Z,24.10
2019-01-20T03:59:59.389Z,24.00
2019-01-20T04:02:37.221Z,24.17
2019-01-20T04:05:12.105Z,23.23
2019-01-20T04:07:49.047Z,26.40
2019-01-20T04:10:23.676Z,24.87
2019-01-20T04:13:00.951Z,23.73
2019-01-20T04:15:32.241Z,24.03
2019-01-20T04:18:03.937Z,24.60
2019-01-20T04:20:36.206Z,23.37
2019-01-20T04:23:07.941Z,23.97
2019-01-20T04:25:38.815Z,23.37
2019-01-20T04:28:09.881Z,24.93
2019-01-20T04:30:41.601Z,24.57
2019-01-20T04:33:13.741Z,24.10
2019-01-20T04:35:49.270Z,22.67
2019-01-20T04:38:38.747Z,21.07
2019-01-20T04:41:27.832Z,22.80
2019-01-20T04:43:59.918Z,23.30
2019-01-20T04:46:31.978Z,22.47
2019-01-20T04:49:02.766Z,23.07
2019-01-20T04:51:33.900Z,22.67
2019-01-20T04:54:05.241Z,23.13
2019-01-20T04:56:36.076Z,23.87
2019-01-20T04:59:06.933Z,23.90
2019-01-20T05:01:37.864Z,23.90
2019-01-20T05:04:26.122Z,23.50
2019-01-20T05:07:09.299Z,23.13
2019-01-20T05:09:41.207Z,22.50
2019-01-20T05:12:13.652Z,23.97
2019-01-20T05:15:00.239Z,22.77
2019-01-20T05:17:34.138Z,23.40
2019-01-20T05:20:07.880Z,22.87
2019-01-20T05:22:38.359Z,22.47
2019-01-20T05:25:09.023Z,23.50
2019-01-20T05:27:39.424Z,22.60
2019-01-20T05:30:13.418Z,23.47
2019-01-20T05:32:48.293Z,21.57
2019-01-20T05:35:21.651Z,21.53
2019-01-20T05:37:53.314Z,21.87
2019-01-20T05:40:24.016Z,22.67
2019-01-20T05:42:55.073Z,21.70
2019-01-20T05:45:26.642Z,23.20
2019-01-20T05:47:57.137Z,23.30
2019-01-20T05:50:27.931Z,24.07
2019-01-20T05:52:58.400Z,22.37
2019-01-20T05:55:29.080Z,23.23
2019-01-20T05:58:00.126Z,22.93
2019-01-20T06:00:35.191Z,21.80
2019-01-20T06:03:09.375Z,20.87
2019-01-20T06:05:44.552Z,22.50
2019-01-20T06:08:16.406Z,23.87
2019-01-20T06:10:49.241Z,21.27
2019-01-20T06:13:21.871Z,22.20
2019-01-20T06:15:52.432Z,23.30
2019-01-20T06:18:24.037Z,24.00
2019-01-20T06:20:54.429Z,22.40
2019-01-20T06:23:25.680Z,23.30
2019-01-20T06:25:56.906Z,22.53
2019-01-20T06:28:27.852Z,23.57
2019-01-20T06:30:59.008Z,24.03
2019-01-20T06:33:29.455Z,23.23
2019-01-20T06:36:00.090Z,22.27
2019-01-20T06:38:31.536Z,24.50
2019-01-20T06:41:20.740Z,25.53
2019-01-20T06:43:51.622Z,22.90
2019-01-20T06:46:24.731Z,25.27
2019-01-20T06:49:03.733Z,23.80
2019-01-20T06:51:36.899Z,25.60
2019-01-20T06:54:07.394Z,25.40
2019-01-20T06:56:38.441Z,24.37
2019-01-20T06:59:09.400Z,26.73
2019-01-20T07:01:43.694Z,24.00
2019-01-20T07:04:16.556Z,25.10
2019-01-20T07:06:50.631Z,25.57
2019-01-20T07:09:23.898Z,23.97
2019-01-20T07:11:57.993Z,25.60
2019-01-20T07:14:30.534Z,26.50
2019-01-20T07:17:01.273Z,26.33
2019-01-20T07:19:32.005Z,24.77
2019-01-20T07:22:03.488Z,27.10
2019-01-20T07:24:34.526Z,27.00
2019-01-20T07:27:05.371Z,25.97
2019-01-20T07:29:35.800Z,26.80
2019-01-20T07:32:07.347Z,27.23
2019-01-20T07:34:38.127Z,26.20
2019-01-20T07:37:11.944Z,28.00
2019-01-20T07:39:45.485Z,27.77
2019-01-20T07:42:18.684Z,26.17
2019-01-20T07:44:52.054Z,24.93
2019-01-20T07:47:26.212Z,26.80
2019-01-20T07:49:59.154Z,25.67
2019-01-20T07:52:30.859Z,27.50
2019-01-20T07:55:01.577Z,26.50
2019-01-20T07:57:32.073Z,25.57
2019-01-20T08:00:03.723Z,26.50
2019-01-20T08:02:34.978Z,26.33
2019-01-20T08:05:05.966Z,28.30
2019-01-20T08:07:36.850Z,27.23
2019-01-20T08:10:10.965Z,28.90
2019-01-20T08:12:48.861Z,27.63
2019-01-20T08:15:37.080Z,28.13
2019-01-20T08:18:10.049Z,29.87
2019-01-20T08:20:41.383Z,27.97
2019-01-20T08:23:13.858Z,28.37
2019-01-20T08:25:50.769Z,29.13
2019-01-20T08:28:26.141Z,26.97
2019-01-20T08:31:12.081Z,28.40
2019-01-20T08:33:45.331Z,33.13
2019-01-20T08:36:17.868Z,28.10
2019-01-20T08:38:51.590Z,26.20
2019-01-20T08:41:23.962Z,27.67
2019-01-20T08:43:54.552Z,26.33
2019-01-20T08:47:16.152Z,27.37
2019-01-20T08:49:51.161Z,27.50
2019-01-20T08:52:24.433Z,27.10
2019-01-20T08:55:10.062Z,27.67
2019-01-20T08:57:42.192Z,26.57
2019-01-20T09:00:17.443Z,27.13
2019-01-20T09:02:50.150Z,26.13
2019-01-20T09:05:27.495Z,25.00
2019-01-20T09:07:59.335Z,26.77
2019-01-20T09:10:30.217Z,28.40
2019-01-20T09:13:07.266Z,26.50
2019-01-20T09:15:39.434Z,28.47
2019-01-20T09:18:14.180Z,29.50
2019-01-20T09:20:48.478Z,26.10
2019-01-20T09:23:22.795Z,28.90
2019-01-20T09:25:53.500Z,28.17
2019-01-20T09:28:38.873Z,28.20
2019-01-20T09:31:11.400Z,30.77
2019-01-20T09:33:51.126Z,28.10
2019-01-20T09:36:25.022Z,28.37
2019-01-20T09:38:55.854Z,28.13
2019-01-20T09:41:26.776Z,27.80
2019-01-20T09:44:02.286Z,25.90
2019-01-20T09:46:34.611Z,28.13
2019-01-20T09:49:08.367Z,28.80
2019-01-20T09:51:39.636Z,28.00
2019-01-20T09:54:12.479Z,29.53
2019-01-20T09:56:58.615Z,29.47
2019-01-20T09:59:30.672Z,25.30
2019-01-20T10:02:01.140Z,27.20
2019-01-20T10:04:32.719Z,27.70
2019-01-20T10:07:03.601Z,26.77
2019-01-20T10:09:38.970Z,27.33
2019-01-20T10:12:12.534Z,27.60
2019-01-20T10:14:49.066Z,25.37
2019-01-20T10:17:22.702Z,27.20
2019-01-20T10:19:55.634Z,29.07
2019-01-20T10:22:28.311Z,29.13
2019-01-20T10:25:00.346Z,26.43
2019-01-20T10:27:32.866Z,25.43
2019-01-20T10:30:09.747Z,29.57
2019-01-20T10:32:40.624Z,26.60
2019-01-20T10:35:13.014Z,27.53
2019-01-20T10:37:50.029Z,27.40
2019-01-20T10:40:28.622Z,28.10
2019-01-20T10:43:00.205Z,27.07
2019-01-20T10:45:34.219Z,38.90
2019-01-20T10:48:07.252Z,31.40
2019-01-20T10:50:38.169Z,29.50
2019-01-20T10:53:11.355Z,27.63
2019-01-20T10:56:00.511Z,27.70
2019-01-20T10:58:31.002Z,27.20
2019-01-20T11:01:07.102Z,28.97
2019-01-20T11:03:56.768Z,27.40
2019-01-20T11:06:31.940Z,26.57
2019-01-20T11:09:17.339Z,27.37
2019-01-20T11:11:49.936Z,28.97
2019-01-20T11:14:23.538Z,27.67
2019-01-20T11:17:01.469Z,28.47
2019-01-20T11:19:32.005Z,29.20
2019-01-20T11:22:05.997Z,29.87
2019-01-20T11:24:37.030Z,31.50
2019-01-20T11:27:17.418Z,29.60
2019-01-20T11:29:52.862Z,29.20
2019-01-20T11:32:26.514Z,29.03
2019-01-20T11:35:01.123Z,27.60
2019-01-20T11:37:33.988Z,28.43
2019-01-20T11:40:26.248Z,27.50
2019-01-20T11:43:01.289Z,28.07
2019-01-20T11:45:37.007Z,29.80
2019-01-20T11:48:10.132Z,25.90
2019-01-20T11:50:48.516Z,30.97
2019-01-20T11:53:21.435Z,26.47
2019-01-20T11:56:10.088Z,26.43
2019-01-20T11:58:41.233Z,26.80
2019-01-20T12:01:31.066Z,25.63
2019-01-20T12:04:06.311Z,27.63
2019-01-20T12:06:39.922Z,25.87
2019-01-20T12:09:15.060Z,28.30
2019-01-20T12:12:08.367Z,26.53
2019-01-20T12:14:41.167Z,26.80
2019-01-20T12:17:12.295Z,27.23
2019-01-20T12:19:59.724Z,27.37
2019-01-20T12:22:32.900Z,26.63
2019-01-20T12:25:11.396Z,25.53
2019-01-20T12:27:44.903Z,26.10
2019-01-20T12:30:20.131Z,26.20
2019-01-20T12:32:51.455Z,26.47
2019-01-20T12:35:26.181Z,26.10
2019-01-20T12:38:00.377Z,26.10
2019-01-20T12:40:47.080Z,25.67
2019-01-20T12:43:19.363Z,29.00
2019-01-20T12:45:57.498Z,26.80
2019-01-20T12:48:30.448Z,29.00
2019-01-20T12:51:02.922Z,29.40
2019-01-20T12:53:36.024Z,27.70
2019-01-20T12:56:09.087Z,28.70
2019-01-20T12:58:46.112Z,28.80
2019-01-20T13:01:17.414Z,27.33
2019-01-20T13:03:57.124Z,27.93
2019-01-20T13:06:30.208Z,28.13
2019-01-20T13:09:08.375Z,27.87
2019-01-20T13:11:39.624Z,27.73
2019-01-20T13:14:11.947Z,28.20
2019-01-20T13:16:47.959Z,26.73
2019-01-20T13:19:20.538Z,28.60
2019-01-20T13:21:52.112Z,30.27
2019-01-20T13:24:25.396Z,29.80
2019-01-20T13:26:57.892Z,28.50
2019-01-20T13:29:30.606Z,29.73
2019-01-20T13:32:04.715Z,27.73
2019-01-20T13:34:37.449Z,27.57
2019-01-20T13:37:12.715Z,29.47
2019-01-20T13:39:45.984Z,28.27
2019-01-20T13:42:31.679Z,28.83
2019-01-20T13:45:06.076Z,29.10
2019-01-20T13:47:50.256Z,28.30
2019-01-20T13:50:22.878Z,29.40
2019-01-20T13:52:55.171Z,27.17
2019-01-20T13:55:27.268Z,26.80
2019-01-20T13:57:59.937Z,29.50
2019-01-20T14:00:33.461Z,29.93
2019-01-20T14:03:06.665Z,27.80
2019-01-20T14:05:47.395Z,28.03
2019-01-20T14:08:22.316Z,32.40
2019-01-20T14:10:58.854Z,30.37
2019-01-20T14:13:31.380Z,27.73
2019-01-20T14:16:25.521Z,27.80
2019-01-20T14:19:02.843Z,28.57
2019-01-20T14:21:36.540Z,29.67
2019-01-20T14:24:19.295Z,27.97
2019-01-20T14:26:51.871Z,26.83
2019-01-20T14:29:25.506Z,25.20
2019-01-20T14:31:57.736Z,28.80
2019-01-20T14:34:33.354Z,33.00
2019-01-20T14:37:06.277Z,28.00
2019-01-20T14:39:36.878Z,28.90
2019-01-20T14:42:08.300Z,28.00
2019-01-20T14:44:39.090Z,28.57
2019-01-20T14:47:09.942Z,29.13
2019-01-20T14:49:48.102Z,28.70
2019-01-20T14:52:22.760Z,29.20
2019-01-20T14:55:01.551Z,26.83
2019-01-20T14:57:37.040Z,28.03
2019-01-20T15:00:11.384Z,28.03
2019-01-20T15:02:42.991Z,24.30
2019-01-20T15:05:29.267Z,25.77
2019-01-20T15:08:00.712Z,27.00
2019-01-20T15:10:34.447Z,27.70
2019-01-20T15:13:06.257Z,27.97
2019-01-20T15:15:41.246Z,25.70
2019-01-20T15:18:15.238Z,27.17
2019-01-20T15:20:52.894Z,29.30
2019-01-20T15:23:24.181Z,27.80
2019-01-20T15:25:55.226Z,29.10
2019-01-20T15:28:29.265Z,27.00
2019-01-20T15:31:02.579Z,43.70
2019-01-20T15:33:51.852Z,35.77
2019-01-20T15:36:23.901Z,29.20
2019-01-20T15:38:56.787Z,30.27
2019-01-20T15:41:28.196Z,28.00
2019-01-20T15:44:00.552Z,26.73
2019-01-20T15:46:35.441Z,27.07
2019-01-20T15:49:10.959Z,27.60
2019-01-20T15:51:44.267Z,28.43
2019-01-20T15:54:33.000Z,24.80
2019-01-20T15:57:04.410Z,25.10
2019-01-20T15:59:37.471Z,26.47
2019-01-20T16:02:09.389Z,26.77
2019-01-20T16:04:40.982Z,26.20
2019-01-20T16:07:11.524Z,26.53
2019-01-20T16:09:42.170Z,26.40
2019-01-20T16:12:28.155Z,24.60
2019-01-20T16:14:59.088Z,25.03
2019-01-20T16:17:30.331Z,24.57
2019-01-20T16:20:10.429Z,24.63
2019-01-20T16:22:41.351Z,25.70
2019-01-20T16:25:15.925Z,23.83
2019-01-20T16:27:46.360Z,23.07
2019-01-20T16:30:20.664Z,21.60
2019-01-20T16:32:51.311Z,23.80
2019-01-20T16:35:22.493Z,24.27
2019-01-20T16:38:03.270Z,22.67
2019-01-20T16:40:36.825Z,20.27
2019-01-20T16:43:07.516Z,21.57
2019-01-20T16:45:46.724Z,18.43
2019-01-20T16:48:36.191Z,17.57
2019-01-20T16:51:10.422Z,19.10
2019-01-20T16:53:41.516Z,18.37
2019-01-20T16:56:13.226Z,18.53
2019-01-20T16:58:46.193Z,20.70
2019-01-20T17:01:17.767Z,19.77
2019-01-20T17:04:09.210Z,18.93
2019-01-20T17:06:40.330Z,23.40
2019-01-20T17:09:12.211Z,19.47
2019-01-20T17:11:46.272Z,20.67
2019-01-20T17:14:35.954Z,19.57
2019-01-20T17:17:25.031Z,20.57
2019-01-20T17:20:14.641Z,19.73
2019-01-20T17:22:47.209Z,19.93
2019-01-20T17:25:20.490Z,18.20
2019-01-20T17:27:53.270Z,22.10
2019-01-20T17:30:29.091Z,18.63
2019-01-20T17:33:00.612Z,18.80
2019-01-20T17:35:36.997Z,19.23
2019-01-20T17:38:08.048Z,20.40
2019-01-20T17:40:40.294Z,22.47
2019-01-20T17:43:13.583Z,21.13
2019-01-20T17:45:48.678Z,22.13
2019-01-20T17:48:19.559Z,23.33
2019-01-20T17:50:51.395Z,20.50
2019-01-20T17:53:22.333Z,22.77
2019-01-20T17:56:08.236Z,24.60
2019-01-20T17:58:39.413Z,23.27
2019-01-20T18:01:13.338Z,24.30
2019-01-20T18:03:53.823Z,24.90
2019-01-20T18:06:24.772Z,24.30
2019-01-20T18:08:56.626Z,23.87
2019-01-20T18:11:29.324Z,26.40
2019-01-20T18:14:00.480Z,21.60
2019-01-20T18:16:34.347Z,23.20
2019-01-20T18:19:06.169Z,22.80
2019-01-20T18:21:39.104Z,22.00
2019-01-20T18:24:12.613Z,23.20
2019-01-20T18:26:46.403Z,20.93
2019-01-20T18:29:20.076Z,19.87
2019-01-20T18:32:01.419Z,19.10
2019-01-20T18:34:35.105Z,19.30
2019-01-20T18:37:09.009Z,20.97
2019-01-20T18:39:58.037Z,20.83
2019-01-20T18:42:32.261Z,21.70
2019-01-20T18:45:06.685Z,22.17
2019-01-20T18:47:40.249Z,21.80
2019-01-20T18:50:14.945Z,21.67
2019-01-20T18:52:50.203Z,21.00
2019-01-20T18:55:23.549Z,20.40
2019-01-20T18:57:56.244Z,21.00
2019-01-20T19:00:33.431Z,21.70
2019-01-20T19:03:03.997Z,23.20
2019-01-20T19:05:41.260Z,23.30
2019-01-20T19:08:30.489Z,23.53
2019-01-20T19:11:26.733Z,22.10
2019-01-20T19:14:02.160Z,21.57
2019-01-20T19:16:36.423Z,23.60
2019-01-20T19:19:06.916Z,23.23
2019-01-20T19:21:42.403Z,23.20
2019-01-20T19:24:14.982Z,23.50
2019-01-20T19:26:50.793Z,21.60
2019-01-20T19:29:22.580Z,23.47
2019-01-20T19:31:55.066Z,23.70
2019-01-20T19:34:29.119Z,22.67
2019-01-20T19:37:01.030Z,23.67
2019-01-20T19:39:38.166Z,23.43
2019-01-20T19:42:12.249Z,24.60
2019-01-20T19:44:44.907Z,23.80
2019-01-20T19:47:34.323Z,24.53
2019-01-20T19:50:08.114Z,23.57
2019-01-20T19:52:38.832Z,25.00
2019-01-20T19:55:13.515Z,26.60
2019-01-20T19:58:02.430Z,26.00
2019-01-20T20:00:53.757Z,23.67
2019-01-20T20:03:39.104Z,21.97
2019-01-20T20:06:11.050Z,24.73
2019-01-20T20:08:43.372Z,23.43
2019-01-20T20:11:16.047Z,23.30
2019-01-20T20:13:55.727Z,22.37
2019-01-20T20:16:26.270Z,24.53
2019-01-20T20:18:58.810Z,22.53
2019-01-20T20:21:33.215Z,25.33
2019-01-20T20:24:04.376Z,24.93
2019-01-20T20:26:38.661Z,23.83
2019-01-20T20:29:11.018Z,26.03
2019-01-20T20:31:46.098Z,24.40
2019-01-20T20:34:18.370Z,24.23
2019-01-20T20:36:53.217Z,26.07
2019-01-20T20:39:26.227Z,25.40
2019-01-20T20:41:57.341Z,23.33
2019-01-20T20:44:29.263Z,25.03
2019-01-20T20:47:03.418Z,23.27
2019-01-20T20:49:36.884Z,24.00
2019-01-20T20:52:09.002Z,24.30
2019-01-20T20:54:42.928Z,23.40
2019-01-20T20:57:21.415Z,24.43
2019-01-20T20:59:53.409Z,22.17
2019-01-20T21:02:28.303Z,24.00
2019-01-20T21:05:01.910Z,23.40
2019-01-20T21:07:38.662Z,22.20
2019-01-20T21:10:17.638Z,22.47
2019-01-20T21:12:48.938Z,21.90
2019-01-20T21:15:24.097Z,23.57
2019-01-20T21:18:02.643Z,21.93
2019-01-20T21:20:37.249Z,23.10
2019-01-20T21:23:13.242Z,22.77
2019-01-20T21:25:56.292Z,24.67
2019-01-20T21:28:29.546Z,22.80
2019-01-20T21:31:00.455Z,23.73
2019-01-20T21:33:32.141Z,24.87
2019-01-20T21:36:04.261Z,24.00
2019-01-20T21:38:53.982Z,22.50
2019-01-20T21:41:27.483Z,21.03
2019-01-20T21:44:01.993Z,22.60
2019-01-20T21:46:37.303Z,22.10
2019-01-20T21:49:07.860Z,23.50
2019-01-20T21:51:45.044Z,21.10
2019-01-20T21:54:17.622Z,25.00
2019-01-20T21:56:52.870Z,22.50
2019-01-20T21:59:26.570Z,24.30
2019-01-20T22:02:01.548Z,23.40
2019-01-20T22:04:36.627Z,23.90
2019-01-20T22:07:10.951Z,26.17
2019-01-20T22:09:42.539Z,24.50
2019-01-20T22:12:36.337Z,26.97
2019-01-20T22:15:11.876Z,26.87
2019-01-20T22:17:50.637Z,26.57
2019-01-20T22:20:24.119Z,26.40
2019-01-20T22:22:59.997Z,25.60
2019-01-20T22:25:36.940Z,26.10
2019-01-20T22:28:07.952Z,26.83
2019-01-20T22:30:41.210Z,25.67
2019-01-20T22:33:17.000Z,26.50
2019-01-20T22:35:50.387Z,26.03
2019-01-20T22:38:26.783Z,25.40
2019-01-20T22:41:12.779Z,28.90
2019-01-20T22:43:44.950Z,26.60
2019-01-20T22:46:19.409Z,26.00
2019-01-20T22:48:54.086Z,27.20
2019-01-20T22:51:28.175Z,28.87
2019-01-20T22:54:05.933Z,27.93
2019-01-20T22:56:56.241Z,29.33
2019-01-20T22:59:36.394Z,28.00
2019-01-20T23:02:10.530Z,28.70
2019-01-20T23:04:46.351Z,30.00
2019-01-20T23:07:22.209Z,29.57
2019-01-20T23:09:54.158Z,27.50
2019-01-20T23:12:28.750Z,29.47
2019-01-20T23:15:04.093Z,28.70
2019-01-20T23:17:37.015Z,29.33
2019-01-20T23:20:12.819Z,28.80
2019-01-20T23:22:46.569Z,28.57
2019-01-20T23:25:19.348Z,27.30
2019-01-20T23:27:51.246Z,27.47
2019-01-20T23:30:28.329Z,28.80
2019-01-20T23:33:01.253Z,31.20
2019-01-20T23:35:35.456Z,27.83
2019-01-20T23:38:18.755Z,29.53
2019-01-20T23:40:51.775Z,27.50
2019-01-20T23:43:26.728Z,30.33
2019-01-20T23:46:00.681Z,32.07
2019-01-20T23:48:31.989Z,30.43
2019-01-20T23:51:07.441Z,30.03
2019-01-20T23:53:42.110Z,29.23
2019-01-20T23:56:26.149Z,29.77
2019-01-20T23:58:59.444Z,29.23
